Time;durP1;ratioP1;P1;durP2;ratioP2;P2;SDS_P1;SDS_P2;PMS_P1;PMS_P2;Temp;Humidity;BMP_temperature;BMP_pressure;BME280_temperature;BME280_humidity;BME280_pressure;Samples;Min_cycle;Max_cycle;Signal;HPM_P1;HPM_P2
2022/11/09 00:02:14;;;;;;;4.60;1.52;;;15.40;99.90;;;;;;4992511;28;20161;-83
2022/11/09 00:04:40;;;;;;;6.63;1.52;;;15.40;99.90;;;;;;4993567;28;20272;-86
2022/11/09 00:07:05;;;;;;;6.43;1.40;;;15.30;99.90;;;;;;4993894;28;20162;-81
2022/11/09 00:09:31;;;;;;;5.18;1.67;;;15.20;99.90;;;;;;4993640;28;20193;-82
2022/11/09 00:11:57;;;;;;;8.98;1.20;;;15.20;99.90;;;;;;4992361;28;20618;-82
2022/11/09 00:14:22;;;;;;;3.78;1.42;;;15.20;99.90;;;;;;4993696;28;20178;-84
2022/11/09 00:16:48;;;;;;;9.40;1.50;;;15.30;99.90;;;;;;4993690;28;20256;-83
2022/11/09 00:19:13;;;;;;;6.72;1.70;;;15.30;99.90;;;;;;4992043;28;20213;-83
2022/11/09 00:21:39;;;;;;;5.30;1.20;;;15.20;99.90;;;;;;4991939;28;20604;-83
2022/11/09 00:24:05;;;;;;;3.80;1.30;;;15.30;99.90;;;;;;4992223;28;20173;-82
2022/11/09 00:26:31;;;;;;;3.58;1.17;;;15.30;99.90;;;;;;4992802;28;20170;-82
2022/11/09 00:28:56;;;;;;;5.72;1.42;;;15.30;99.90;;;;;;4993691;28;20251;-84
2022/11/09 00:31:23;;;;;;;7.93;1.70;;;15.20;99.90;;;;;;4992298;28;20578;-82
2022/11/09 00:33:55;;;;;;;6.75;1.42;;;15.30;99.90;;;;;;4992353;28;20603;-84
2022/11/09 00:36:23;;;;;;;14.43;1.65;;;15.30;99.90;;;;;;4993595;28;20197;-85
2022/11/09 00:38:51;;;;;;;5.03;1.45;;;15.30;99.90;;;;;;4993228;28;20209;-86
2022/11/09 00:41:18;;;;;;;2.85;1.25;;;15.20;99.90;;;;;;4994140;28;20228;-84
2022/11/09 00:43:44;;;;;;;8.82;1.23;;;15.10;99.90;;;;;;4992369;28;20311;-83
2022/11/09 00:46:10;;;;;;;5.65;1.88;;;15.00;99.90;;;;;;4993541;28;20622;-83
2022/11/09 00:48:35;;;;;;;8.98;2.30;;;14.80;99.90;;;;;;4993418;28;20260;-83
2022/11/09 00:51:02;;;;;;;4.43;1.10;;;14.90;99.90;;;;;;4992436;28;20657;-85
2022/11/09 00:53:29;;;;;;;8.75;1.65;;;14.80;99.90;;;;;;4993480;28;20223;-84
2022/11/09 00:55:55;;;;;;;5.88;1.40;;;14.80;99.90;;;;;;4993709;28;20254;-84
2022/11/09 00:58:21;;;;;;;6.80;1.33;;;14.80;99.90;;;;;;4992327;28;20220;-85
2022/11/09 01:00:47;;;;;;;4.47;1.30;;;14.80;99.90;;;;;;4991994;28;20157;-81
2022/11/09 01:03:13;;;;;;;4.63;1.20;;;14.70;99.90;;;;;;4993347;28;20541;-85
2022/11/09 01:05:39;;;;;;;6.88;2.03;;;14.60;99.90;;;;;;4992170;28;20175;-85
2022/11/09 01:08:05;;;;;;;9.15;1.80;;;14.60;99.90;;;;;;4993769;28;20199;-84
2022/11/09 01:10:33;;;;;;;8.57;2.05;;;14.60;99.90;;;;;;4993337;28;20169;-86
2022/11/09 01:12:59;;;;;;;9.60;1.65;;;14.50;99.90;;;;;;4997580;28;20249;-85
2022/11/09 01:15:25;;;;;;;7.20;1.40;;;14.40;99.90;;;;;;4997089;28;20259;-86
2022/11/09 01:17:51;;;;;;;4.30;1.13;;;14.30;99.90;;;;;;4997364;28;20224;-86
2022/11/09 01:20:16;;;;;;;9.07;1.65;;;14.40;99.90;;;;;;4997410;28;20693;-86
2022/11/09 01:22:42;;;;;;;8.02;1.30;;;14.40;99.90;;;;;;4996614;28;20253;-84
2022/11/09 01:25:08;;;;;;;5.10;1.42;;;14.40;99.90;;;;;;4995893;28;20260;-82
2022/11/09 01:27:34;;;;;;;4.93;1.67;;;14.30;99.90;;;;;;4995450;28;20589;-83
2022/11/09 01:30:00;;;;;;;10.43;1.30;;;14.30;99.90;;;;;;4995656;28;20169;-84
2022/11/09 01:32:25;;;;;;;5.88;1.45;;;14.30;99.90;;;;;;4995504;28;20235;-82
2022/11/09 01:34:51;;;;;;;4.82;1.20;;;14.40;99.90;;;;;;4995391;28;20220;-81
2022/11/09 01:37:17;;;;;;;3.95;1.58;;;14.40;99.90;;;;;;4995129;28;20180;-81
2022/11/09 01:39:42;;;;;;;10.75;1.38;;;14.40;99.90;;;;;;4995025;28;20208;-82
2022/11/09 01:42:08;;;;;;;4.60;1.33;;;14.40;99.90;;;;;;4996266;28;20166;-82
2022/11/09 01:44:36;;;;;;;15.23;2.45;;;14.60;99.90;;;;;;4995088;28;20165;-86
2022/11/09 01:47:21;;;;;;;6.05;1.13;;;14.70;99.90;;;;;;4996878;28;20248;-86
2022/11/09 01:49:58;;;;;;;10.50;1.60;;;14.70;99.90;;;;;;4994869;28;20672;-86
2022/11/09 01:52:37;;;;;;;10.52;1.23;;;14.60;99.90;;;;;;4995460;28;20169;-82
2022/11/09 01:55:11;;;;;;;7.45;1.70;;;14.60;99.90;;;;;;4996720;28;20185;-82
2022/11/09 01:57:46;;;;;;;8.32;2.45;;;14.70;99.90;;;;;;4996787;28;20579;-83
2022/11/09 02:00:14;;;;;;;13.55;2.67;;;14.70;99.90;;;;;;5008020;28;20203;-83
2022/11/09 02:02:44;;;;;;;15.20;3.33;;;14.70;99.90;;;;;;4999921;28;20170;-81
2022/11/09 02:05:18;;;;;;;12.90;3.78;;;14.80;99.90;;;;;;4995007;28;20181;-83
2022/11/09 02:07:44;;;;;;;13.15;4.35;;;14.90;99.90;;;;;;4994310;28;20279;-81
2022/11/09 02:10:19;;;;;;;11.70;4.50;;;14.90;99.90;;;;;;4994443;28;20669;-82
2022/11/09 02:12:45;;;;;;;14.38;5.75;;;15.00;99.90;;;;;;4994447;28;20523;-87
2022/11/09 02:15:12;;;;;;;11.93;4.88;;;14.80;99.90;;;;;;4994488;28;20174;-84
2022/11/09 02:17:39;;;;;;;12.02;4.88;;;14.70;99.90;;;;;;4994170;28;20284;-82
2022/11/09 02:20:14;;;;;;;13.65;4.63;;;14.60;99.90;;;;;;4995587;28;20205;-82
2022/11/09 02:22:41;;;;;;;11.73;4.68;;;14.60;99.90;;;;;;4993317;28;20175;-85
2022/11/09 02:25:08;;;;;;;12.25;4.63;;;14.70;99.90;;;;;;4995610;28;20174;-82
2022/11/09 02:27:35;;;;;;;14.70;4.63;;;14.50;99.90;;;;;;4995258;28;20193;-82
2022/11/09 02:30:03;;;;;;;12.55;5.70;;;14.50;99.90;;;;;;4995455;28;20177;-81
2022/11/09 02:32:30;;;;;;;8.48;3.75;;;14.40;99.90;;;;;;4995511;28;20300;-82
2022/11/09 02:34:56;;;;;;;13.68;5.03;;;14.40;99.90;;;;;;4994486;28;20256;-82
2022/11/09 02:37:40;;;;;;;18.52;4.88;;;14.50;99.90;;;;;;4994359;28;20689;-86
2022/11/09 02:40:13;;;;;;;15.82;4.80;;;14.40;99.90;;;;;;4995979;28;20209;-83
2022/11/09 02:42:38;;;;;;;13.98;3.88;;;14.50;99.90;;;;;;4995640;28;20180;-86
2022/11/09 02:45:05;;;;;;;9.15;4.25;;;14.50;99.90;;;;;;4994045;28;20172;-82
2022/11/09 02:47:30;;;;;;;11.02;3.42;;;14.60;99.90;;;;;;4996114;28;20204;-87
2022/11/09 02:49:56;;;;;;;12.43;3.75;;;14.50;99.90;;;;;;4994191;28;20161;-82
2022/11/09 02:52:22;;;;;;;11.45;3.22;;;14.50;99.90;;;;;;4994207;28;20177;-86
2022/11/09 02:54:48;;;;;;;15.77;4.53;;;14.40;99.90;;;;;;4995478;28;20181;-86
2022/11/09 02:57:13;;;;;;;11.93;4.00;;;14.50;99.90;;;;;;4993963;28;20173;-83
2022/11/09 02:59:39;;;;;;;7.88;2.88;;;14.40;99.90;;;;;;4993938;28;20219;-82
2022/11/09 03:02:05;;;;;;;10.90;3.10;;;14.40;99.90;;;;;;4994374;28;20260;-86
2022/11/09 03:04:30;;;;;;;21.25;3.92;;;14.30;99.90;;;;;;4993387;28;20173;-82
2022/11/09 03:06:56;;;;;;;7.60;2.95;;;14.20;99.90;;;;;;4994994;28;20168;-82
2022/11/09 03:09:22;;;;;;;14.55;4.15;;;14.20;99.90;;;;;;4994552;28;20535;-81
2022/11/09 03:11:48;;;;;;;11.50;4.22;;;14.20;99.90;;;;;;4994721;28;20518;-81
2022/11/09 03:14:14;;;;;;;12.45;3.28;;;14.10;99.90;;;;;;4993144;28;20173;-82
2022/11/09 03:16:39;;;;;;;9.93;3.90;;;14.10;99.90;;;;;;4994533;28;20259;-81
2022/11/09 03:19:06;;;;;;;12.20;4.80;;;14.10;99.90;;;;;;4994473;28;20204;-81
2022/11/09 03:21:31;;;;;;;11.57;4.38;;;14.20;99.90;;;;;;4993242;28;20165;-82
2022/11/09 03:23:57;;;;;;;19.13;4.97;;;14.20;99.90;;;;;;4994468;28;20196;-82
2022/11/09 03:26:23;;;;;;;12.40;4.20;;;14.20;99.90;;;;;;4993137;28;20240;-82
2022/11/09 03:28:49;;;;;;;10.73;4.18;;;14.30;99.90;;;;;;4993932;28;20658;-84
2022/11/09 03:31:14;;;;;;;17.65;4.25;;;14.20;99.90;;;;;;4997164;28;20170;-85
2022/11/09 03:33:40;;;;;;;14.77;3.53;;;14.30;99.90;;;;;;4995382;28;20192;-86
2022/11/09 03:36:07;;;;;;;24.45;3.78;;;14.30;99.90;;;;;;4994147;28;20540;-84
2022/11/09 03:38:33;;;;;;;11.30;3.50;;;14.30;99.90;;;;;;5004266;28;20223;-86
2022/11/09 03:41:00;;;;;;;15.50;3.45;;;14.30;99.90;;;;;;5002902;28;20165;-85
2022/11/09 03:43:29;;;;;;;8.70;2.85;;;14.40;99.90;;;;;;5003599;28;20177;-84
2022/11/09 03:45:55;;;;;;;17.67;3.00;;;14.30;99.90;;;;;;4998215;28;20284;-82
2022/11/09 03:48:21;;;;;;;10.63;3.00;;;14.30;99.90;;;;;;5000424;28;20191;-81
2022/11/09 03:50:47;;;;;;;7.78;2.38;;;14.30;99.90;;;;;;4997056;28;20217;-81
2022/11/09 03:53:14;;;;;;;7.35;2.30;;;14.10;99.90;;;;;;4995979;28;20189;-81
2022/11/09 03:55:40;;;;;;;15.23;2.47;;;14.10;99.90;;;;;;4996834;28;20193;-83
2022/11/09 03:58:08;;;;;;;13.68;3.03;;;14.20;99.90;;;;;;4998295;28;20705;-82
2022/11/09 04:00:35;;;;;;;6.35;2.60;;;14.00;99.90;;;;;;4995015;28;20638;-82
2022/11/09 04:03:00;;;;;;;14.68;3.17;;;13.90;99.90;;;;;;4992874;28;20193;-81
2022/11/09 04:05:26;;;;;;;13.07;2.25;;;13.70;99.90;;;;;;4993701;28;20162;-82
2022/11/09 04:07:53;;;;;;;7.43;1.83;;;13.70;99.90;;;;;;4992241;28;20264;-82
2022/11/09 04:10:20;;;;;;;11.00;2.47;;;13.70;99.90;;;;;;4993709;28;20165;-81
2022/11/09 04:12:46;;;;;;;11.82;2.95;;;13.70;99.90;;;;;;4992054;28;20255;-81
2022/11/09 04:15:12;;;;;;;7.25;2.58;;;13.70;99.90;;;;;;4993632;28;20200;-82
2022/11/09 04:17:38;;;;;;;5.47;1.80;;;13.80;99.90;;;;;;4993224;28;20189;-81
2022/11/09 04:20:05;;;;;;;10.35;2.15;;;13.90;99.90;;;;;;4992261;28;20260;-82
2022/11/09 04:22:31;;;;;;;9.95;2.10;;;13.70;99.90;;;;;;4992176;28;20164;-81
2022/11/09 04:24:56;;;;;;;13.48;1.67;;;13.70;99.90;;;;;;4993669;28;20169;-85
2022/11/09 04:27:22;;;;;;;15.20;2.28;;;13.60;99.90;;;;;;4993530;28;20184;-81
2022/11/09 04:29:48;;;;;;;8.00;1.70;;;13.60;99.90;;;;;;4993192;28;20170;-81
2022/11/09 04:32:13;;;;;;;11.95;3.80;;;13.60;99.90;;;;;;4992258;28;20169;-82
2022/11/09 04:34:40;;;;;;;5.97;1.92;;;13.60;99.90;;;;;;4993397;28;20697;-86
2022/11/09 04:37:06;;;;;;;15.93;2.00;;;13.60;99.90;;;;;;4992138;28;20251;-82
2022/11/09 04:39:32;;;;;;;9.02;1.92;;;13.40;99.90;;;;;;4993197;28;20212;-84
2022/11/09 04:41:57;;;;;;;8.18;1.50;;;13.30;99.90;;;;;;4991952;28;20315;-84
2022/11/09 04:44:23;;;;;;;15.43;1.80;;;13.40;99.90;;;;;;4991306;28;20498;-82
2022/11/09 04:46:48;;;;;;;8.48;1.85;;;13.40;99.90;;;;;;4992718;28;20203;-86
2022/11/09 04:49:14;;;;;;;7.18;2.13;;;13.40;99.90;;;;;;4993103;28;20657;-83
2022/11/09 04:51:39;;;;;;;13.50;2.42;;;13.50;99.90;;;;;;4991827;28;20204;-83
2022/11/09 04:54:05;;;;;;;9.75;1.95;;;13.40;99.90;;;;;;4993862;28;20645;-82
2022/11/09 04:56:31;;;;;;;10.32;2.25;;;13.50;99.90;;;;;;4993291;28;20185;-82
2022/11/09 04:58:56;;;;;;;13.20;2.10;;;13.50;99.90;;;;;;4992156;28;20212;-81
2022/11/09 05:01:22;;;;;;;10.77;2.17;;;13.50;99.90;;;;;;4992560;28;20641;-83
2022/11/09 05:03:48;;;;;;;5.75;1.33;;;13.50;99.90;;;;;;4991839;28;20169;-82
2022/11/09 05:06:32;;;;;;;12.15;2.00;;;13.50;99.90;;;;;;4991713;28;20165;-82
2022/11/09 05:09:02;;;;;;;6.60;1.58;;;13.50;99.90;;;;;;4991582;28;20673;-82
2022/11/09 05:11:28;;;;;;;11.98;2.00;;;13.50;99.90;;;;;;4991591;28;20173;-81
2022/11/09 05:13:54;;;;;;;10.55;2.08;;;13.40;99.90;;;;;;4992264;28;20169;-81
2022/11/09 05:16:20;;;;;;;9.98;2.50;;;13.40;99.90;;;;;;4991779;28;20220;-81
2022/11/09 05:18:46;;;;;;;7.75;2.05;;;13.20;99.90;;;;;;4992590;28;20220;-80
2022/11/09 05:21:11;;;;;;;6.93;2.00;;;13.10;99.90;;;;;;4992427;28;20248;-80
2022/11/09 05:26:22;;;;;;;11.82;1.90;;;13.10;99.90;;;;;;4992347;28;20176;-81
2022/11/09 05:28:47;;;;;;;14.00;1.90;;;13.10;99.90;;;;;;4991092;28;20197;-81
2022/11/09 05:31:13;;;;;;;14.98;2.47;;;13.20;99.90;;;;;;4990973;28;20614;-79
2022/11/09 05:33:39;;;;;;;13.00;2.28;;;13.20;99.90;;;;;;4992028;28;20256;-82
2022/11/09 05:36:05;;;;;;;7.40;1.80;;;13.20;99.90;;;;;;4992289;28;20165;-81
2022/11/09 05:38:31;;;;;;;9.23;1.80;;;13.30;99.90;;;;;;4991311;28;20217;-81
2022/11/09 05:40:57;;;;;;;4.70;1.85;;;13.30;99.90;;;;;;4992481;28;20232;-82
2022/11/09 05:43:22;;;;;;;9.25;1.63;;;13.30;99.90;;;;;;4991136;28;20165;-79
2022/11/09 05:45:48;;;;;;;8.57;1.60;;;13.20;99.90;;;;;;4991096;28;20279;-79
2022/11/09 05:48:16;;;;;;;3.88;1.80;;;13.10;99.90;;;;;;4991143;28;20731;-79
2022/11/09 05:50:42;;;;;;;12.30;2.08;;;13.10;99.90;;;;;;4991168;28;20180;-80
2022/11/09 05:53:09;;;;;;;9.75;2.28;;;13.00;99.90;;;;;;4991042;28;20173;-82
2022/11/09 05:55:35;;;;;;;11.88;2.30;;;13.00;99.90;;;;;;4991257;28;20212;-79
2022/11/09 05:58:00;;;;;;;8.35;2.53;;;13.20;99.90;;;;;;4993652;28;20272;-81
2022/11/09 06:00:26;;;;;;;8.95;2.55;;;13.10;99.90;;;;;;4994682;28;20173;-81
2022/11/09 06:03:00;;;;;;;11.43;3.05;;;13.10;99.90;;;;;;4994723;28;20180;-84
2022/11/09 06:05:25;;;;;;;13.35;3.05;;;13.10;99.90;;;;;;4994979;28;20185;-79
2022/11/09 06:07:51;;;;;;;13.43;3.28;;;13.10;99.90;;;;;;4996162;28;20260;-82
2022/11/09 06:10:17;;;;;;;10.35;2.83;;;13.00;99.90;;;;;;4995771;28;20177;-83
2022/11/09 06:12:42;;;;;;;14.52;2.80;;;13.00;99.90;;;;;;4994414;28;20208;-80
2022/11/09 06:15:08;;;;;;;15.85;3.15;;;13.00;99.90;;;;;;4995879;28;20256;-84
2022/11/09 06:17:33;;;;;;;14.05;3.47;;;13.00;99.90;;;;;;4994561;28;20193;-79
2022/11/09 06:19:59;;;;;;;15.23;3.03;;;12.90;99.90;;;;;;4995321;28;20617;-79
2022/11/09 06:22:25;;;;;;;20.70;3.42;;;12.90;99.90;;;;;;4995101;28;20169;-81
2022/11/09 06:24:50;;;;;;;13.55;3.78;;;12.90;99.90;;;;;;4995398;28;20255;-80
2022/11/09 06:27:16;;;;;;;9.10;3.55;;;12.90;99.90;;;;;;4995454;28;20180;-80
2022/11/09 06:29:41;;;;;;;12.70;3.47;;;13.00;99.90;;;;;;4994089;28;20637;-80
2022/11/09 06:32:07;;;;;;;17.33;4.20;;;12.90;99.90;;;;;;4995266;28;20508;-80
2022/11/09 06:34:32;;;;;;;21.33;4.90;;;13.00;99.90;;;;;;4993989;28;20207;-81
2022/11/09 06:36:58;;;;;;;19.73;4.03;;;12.90;99.90;;;;;;4995430;28;20166;-80
2022/11/09 06:39:23;;;;;;;21.33;4.10;;;12.80;99.90;;;;;;4995458;28;20205;-80
2022/11/09 06:41:49;;;;;;;15.18;3.92;;;12.90;99.90;;;;;;4996087;28;20197;-86
2022/11/09 06:44:15;;;;;;;18.75;4.05;;;12.80;99.90;;;;;;4996218;28;20165;-86
2022/11/09 06:46:40;;;;;;;22.60;4.38;;;12.70;99.90;;;;;;4994467;28;20169;-81
2022/11/09 06:49:06;;;;;;;16.58;4.38;;;12.60;99.90;;;;;;4992918;28;20189;-84
2022/11/09 06:51:31;;;;;;;9.85;3.22;;;12.50;99.90;;;;;;4979151;28;20760;-83
2022/11/09 06:53:57;;;;;;;18.77;3.88;;;12.60;99.90;;;;;;4999257;28;20189;-82
2022/11/09 06:56:23;;;;;;;14.48;3.80;;;12.70;99.90;;;;;;4985187;28;20598;-84
2022/11/09 06:58:48;;;;;;;15.15;3.25;;;12.80;99.90;;;;;;4982626;28;20212;-86
2022/11/09 07:01:16;;;;;;;13.80;3.40;;;12.90;99.90;;;;;;4995294;28;20227;-81
2022/11/09 07:03:42;;;;;;;13.13;2.85;;;12.90;99.90;;;;;;4994998;28;20185;-83
2022/11/09 07:06:10;;;;;;;11.05;2.70;;;12.80;99.90;;;;;;4977597;28;20223;-84
2022/11/09 07:08:36;;;;;;;14.50;2.88;;;12.80;99.90;;;;;;4977507;28;20193;-84
2022/11/09 07:11:07;;;;;;;7.32;2.58;;;12.60;99.90;;;;;;4995230;28;20299;-84
2022/11/09 07:13:33;;;;;;;13.18;2.28;;;12.70;99.90;;;;;;4995246;28;20165;-82
2022/11/09 07:15:58;;;;;;;7.97;2.53;;;12.70;99.90;;;;;;4995018;28;20178;-83
2022/11/09 07:18:24;;;;;;;7.45;2.40;;;12.70;99.90;;;;;;4977425;28;20288;-82
2022/11/09 07:20:50;;;;;;;11.25;3.00;;;12.70;99.90;;;;;;4977177;28;20671;-82
2022/11/09 07:23:15;;;;;;;9.02;2.63;;;12.70;99.90;;;;;;4995088;28;20176;-80
2022/11/09 07:25:41;;;;;;;9.90;1.95;;;12.70;99.90;;;;;;5001083;28;20197;-83
2022/11/09 07:28:08;;;;;;;4.80;1.73;;;12.80;99.90;;;;;;4978567;28;20200;-85
2022/11/09 07:30:35;;;;;;;11.00;2.28;;;12.80;99.90;;;;;;4993866;28;20173;-82
2022/11/09 07:33:01;;;;;;;9.38;1.98;;;12.80;99.90;;;;;;4976521;28;20170;-79
2022/11/09 07:35:26;;;;;;;9.48;2.20;;;12.80;99.90;;;;;;4994675;28;20244;-86
2022/11/09 07:37:52;;;;;;;9.20;2.60;;;12.90;99.90;;;;;;4977415;28;20548;-82
2022/11/09 07:40:18;;;;;;;16.15;2.90;;;12.80;99.90;;;;;;4994452;28;20262;-83
2022/11/09 07:42:44;;;;;;;9.20;2.28;;;12.70;99.90;;;;;;4977078;28;20161;-85
2022/11/09 07:45:10;;;;;;;8.40;2.38;;;12.70;99.90;;;;;;4995288;28;20696;-84
2022/11/09 07:47:35;;;;;;;8.48;2.30;;;12.80;99.90;;;;;;4997072;28;20835;-83
2022/11/09 07:50:02;;;;;;;9.55;2.45;;;12.80;99.90;;;;;;4995527;28;20584;-83
2022/11/09 07:52:28;;;;;;;11.00;2.88;;;13.00;99.90;;;;;;4978333;28;20165;-82
2022/11/09 07:54:53;;;;;;;10.70;2.38;;;13.00;99.90;;;;;;4977403;28;20189;-85
2022/11/09 07:57:19;;;;;;;5.75;2.00;;;12.90;99.90;;;;;;5003042;28;20178;-86
2022/11/09 07:59:44;;;;;;;6.43;2.28;;;12.90;99.90;;;;;;5020740;28;20203;-85
2022/11/09 08:02:10;;;;;;;10.90;2.35;;;12.90;99.90;;;;;;5008173;28;20164;-81
2022/11/09 08:04:36;;;;;;;9.10;1.92;;;12.90;99.90;;;;;;5014311;28;20177;-81
2022/11/09 08:07:02;;;;;;;15.02;2.42;;;13.00;99.90;;;;;;5002894;28;20183;-86
2022/11/09 08:09:27;;;;;;;9.73;2.30;;;13.10;99.90;;;;;;4986805;28;20577;-83
2022/11/09 08:11:53;;;;;;;11.25;2.20;;;13.10;99.90;;;;;;4992728;28;20197;-84
2022/11/09 08:14:19;;;;;;;12.07;2.38;;;13.00;99.90;;;;;;4994515;28;20169;-86
2022/11/09 08:16:44;;;;;;;11.65;2.55;;;13.00;99.90;;;;;;4977026;28;20684;-86
2022/11/09 08:19:10;;;;;;;7.63;2.00;;;13.10;99.90;;;;;;4993701;28;20217;-87
2022/11/09 08:21:36;;;;;;;19.83;2.47;;;13.10;99.90;;;;;;4992883;28;20173;-87
2022/11/09 08:24:02;;;;;;;11.90;1.92;;;13.10;99.90;;;;;;4993819;28;20238;-82
2022/11/09 08:26:28;;;;;;;4.82;1.77;;;13.10;99.90;;;;;;4995611;28;20165;-82
2022/11/09 08:28:54;;;;;;;6.38;1.50;;;13.20;99.90;;;;;;4994670;28;20705;-86
2022/11/09 08:31:20;;;;;;;7.13;1.58;;;13.20;99.90;;;;;;4993720;28;20177;-85
2022/11/09 08:33:45;;;;;;;6.35;1.48;;;13.20;99.90;;;;;;5008511;28;20177;-85
2022/11/09 08:36:14;;;;;;;4.65;1.65;;;13.30;99.90;;;;;;4991356;28;20235;-78
2022/11/09 08:38:40;;;;;;;7.75;1.88;;;13.40;99.90;;;;;;4974373;28;20620;-85
2022/11/09 08:41:07;;;;;;;12.63;1.85;;;13.40;99.90;;;;;;4976012;28;20224;-83
2022/11/09 08:43:33;;;;;;;10.77;1.98;;;13.40;99.90;;;;;;4976177;28;20548;-86
2022/11/09 08:45:58;;;;;;;8.77;1.90;;;13.50;99.90;;;;;;4992875;28;20244;-83
2022/11/09 08:48:24;;;;;;;6.53;1.45;;;13.40;99.90;;;;;;4975782;28;20189;-83
2022/11/09 08:50:55;;;;;;;9.48;2.10;;;13.50;99.90;;;;;;4977716;28;20173;-83
2022/11/09 08:53:23;;;;;;;12.38;2.33;;;13.40;99.90;;;;;;4976341;28;20589;-85
2022/11/09 08:55:49;;;;;;;12.80;1.70;;;13.40;99.90;;;;;;4978679;28;20201;-85
2022/11/09 08:58:19;;;;;;;6.60;1.52;;;13.50;99.90;;;;;;5002978;28;20197;-82
2022/11/09 09:00:46;;;;;;;4.13;1.80;;;13.60;99.90;;;;;;5010614;28;20180;-83
2022/11/09 09:03:12;;;;;;;5.78;1.27;;;13.60;99.90;;;;;;5003814;28;20161;-82
2022/11/09 09:05:41;;;;;;;9.93;2.17;;;13.70;99.90;;;;;;4981592;28;20183;-84
2022/11/09 09:08:09;;;;;;;6.60;1.27;;;13.70;99.90;;;;;;4978083;28;20188;-86
2022/11/09 09:10:35;;;;;;;10.05;1.83;;;13.90;99.90;;;;;;4965885;28;20196;-85
2022/11/09 09:13:04;;;;;;;7.78;1.48;;;13.80;99.90;;;;;;4979534;28;20165;-84
2022/11/09 09:15:31;;;;;;;5.22;1.50;;;13.70;99.90;;;;;;5003919;28;20253;-81
2022/11/09 09:18:01;;;;;;;5.55;2.28;;;13.70;99.90;;;;;;4981492;28;20211;-85
2022/11/09 09:20:27;;;;;;;6.13;1.98;;;13.80;99.90;;;;;;4981678;28;20189;-83
2022/11/09 09:22:52;;;;;;;7.75;1.98;;;13.70;99.90;;;;;;5002774;28;20251;-83
2022/11/09 09:25:18;;;;;;;7.85;2.00;;;13.70;99.90;;;;;;4993323;28;20196;-83
2022/11/09 09:27:44;;;;;;;12.70;1.70;;;13.70;99.90;;;;;;4998061;28;20248;-83
2022/11/09 09:30:10;;;;;;;5.22;1.83;;;13.70;99.90;;;;;;5012721;28;20189;-84
2022/11/09 09:32:43;;;;;;;7.88;1.92;;;13.80;99.90;;;;;;5011563;28;20180;-83
2022/11/09 09:35:08;;;;;;;12.90;1.85;;;13.80;99.90;;;;;;5003982;28;20173;-82
2022/11/09 09:37:34;;;;;;;14.00;1.90;;;14.10;99.90;;;;;;5008188;28;20193;-86
2022/11/09 09:40:00;;;;;;;9.50;1.73;;;14.10;99.90;;;;;;5012523;28;20300;-84
2022/11/09 09:42:40;;;;;;;9.50;1.50;;;14.20;99.90;;;;;;5000884;28;20173;-80
2022/11/09 09:45:32;;;;;;;17.13;2.20;;;14.10;99.90;;;;;;5011986;28;20172;-82
2022/11/09 09:48:11;;;;;;;13.13;1.50;;;14.20;99.90;;;;;;5014313;28;20261;-80
2022/11/09 09:50:46;;;;;;;8.73;1.20;;;14.30;99.90;;;;;;5000170;28;20171;-79
2022/11/09 09:53:23;;;;;;;9.70;1.48;;;14.20;99.90;;;;;;5001921;28;20165;-78
2022/11/09 09:56:23;;;;;;;6.00;1.40;;;14.20;99.90;;;;;;5000605;28;20192;-80
2022/11/09 09:59:05;;;;;;;12.23;1.73;;;14.30;99.90;;;;;;4998420;28;20205;-87
2022/11/09 10:01:39;;;;;;;4.20;1.35;;;14.40;99.90;;;;;;4997400;28;20539;-85
2022/11/09 10:04:21;;;;;;;9.15;1.30;;;14.40;99.90;;;;;;4995634;28;20228;-86
2022/11/09 10:07:14;;;;;;;7.65;1.50;;;14.60;99.90;;;;;;4996159;28;20176;-86
2022/11/09 10:09:49;;;;;;;8.02;1.45;;;14.70;99.90;;;;;;4996939;28;20199;-84
2022/11/09 10:12:36;;;;;;;9.18;1.88;;;14.90;99.90;;;;;;4998272;28;20645;-89
2022/11/09 10:15:12;;;;;;;6.22;1.40;;;14.90;99.90;;;;;;4997539;28;20208;-86
2022/11/09 10:18:23;;;;;;;13.48;2.30;;;15.00;99.90;;;;;;5002458;28;20181;-82
2022/11/09 10:21:26;;;;;;;11.27;2.38;;;15.10;99.90;;;;;;4944621;29;20194;-84
2022/11/09 10:24:27;;;;;;;9.73;1.30;;;14.80;99.90;;;;;;4959035;29;20245;-84
2022/11/09 10:27:01;;;;;;;15.50;1.55;;;14.80;99.90;;;;;;4986721;28;20185;-85
2022/11/09 10:29:49;;;;;;;7.43;2.08;;;15.00;99.90;;;;;;5002728;28;20189;-86
2022/11/09 10:32:17;;;;;;;14.40;1.75;;;15.00;99.90;;;;;;5002399;28;20173;-86
2022/11/09 10:35:03;;;;;;;9.07;1.73;;;15.10;99.90;;;;;;5003448;28;20181;-86
2022/11/09 10:37:39;;;;;;;6.90;2.78;;;15.10;99.90;;;;;;5004635;28;20181;-86
2022/11/09 10:40:27;;;;;;;13.30;2.30;;;15.20;99.90;;;;;;5003161;28;20209;-86
2022/11/09 10:42:55;;;;;;;9.38;1.80;;;15.20;99.90;;;;;;5014970;28;20300;-84
2022/11/09 10:45:49;;;;;;;3.75;1.60;;;15.30;99.90;;;;;;5008177;28;20169;-85
2022/11/09 10:48:36;;;;;;;5.18;1.45;;;15.30;99.90;;;;;;5007956;28;20216;-85
2022/11/09 10:51:03;;;;;;;11.23;1.90;;;15.10;99.90;;;;;;4985743;28;20174;-86
2022/11/09 10:53:32;;;;;;;5.28;1.27;;;15.00;99.90;;;;;;4997393;28;20157;-91
2022/11/09 10:56:03;;;;;;;11.80;1.75;;;15.00;99.90;;;;;;5001164;28;20181;-78
2022/11/09 10:58:35;;;;;;;11.40;2.10;;;15.10;99.90;;;;;;5003481;28;20201;-78
2022/11/09 11:01:22;;;;;;;2.97;1.70;;;15.20;99.90;;;;;;5001946;28;20165;-78
2022/11/09 11:03:56;;;;;;;8.90;1.63;;;15.30;99.90;;;;;;5000812;28;20172;-79
2022/11/09 11:06:21;;;;;;;3.30;1.10;;;15.40;99.90;;;;;;4995272;28;20541;-91
2022/11/09 11:08:49;;;;;;;7.85;1.83;;;15.40;99.90;;;;;;4993551;28;20193;-83
2022/11/09 11:11:28;;;;;;;4.20;1.30;;;15.40;99.90;;;;;;4997026;28;20177;-78
2022/11/09 11:14:23;;;;;;;7.13;1.50;;;15.30;99.90;;;;;;4995943;28;20173;-77
2022/11/09 11:16:51;;;;;;;8.32;2.35;;;15.30;99.90;;;;;;4989309;28;20181;-80
2022/11/09 11:19:32;;;;;;;11.38;3.47;;;15.40;99.90;;;;;;4994227;28;20212;-78
2022/11/09 11:22:18;;;;;;;8.77;1.60;;;15.40;99.90;;;;;;4995064;28;20253;-79
2022/11/09 11:24:58;;;;;;;13.40;2.28;;;15.40;99.90;;;;;;4994688;28;20252;-78
2022/11/09 11:27:30;;;;;;;6.53;2.30;;;15.20;99.90;;;;;;4994046;28;20169;-79
2022/11/09 11:30:02;;;;;;;15.02;3.28;;;15.20;99.90;;;;;;4999659;28;20189;-81
2022/11/09 11:32:27;;;;;;;12.07;2.08;;;15.30;99.90;;;;;;5007674;28;20181;-79
2022/11/09 11:34:53;;;;;;;18.10;2.92;;;15.40;99.90;;;;;;4995532;28;20165;-77
2022/11/09 11:37:34;;;;;;;11.70;2.10;;;15.50;99.90;;;;;;4994352;28;20204;-82
2022/11/09 11:40:09;;;;;;;4.32;1.63;;;15.50;99.90;;;;;;4994312;28;20220;-78
2022/11/09 11:43:05;;;;;;;7.93;1.38;;;15.40;99.90;;;;;;4994080;28;20172;-78
2022/11/09 11:45:47;;;;;;;10.65;1.90;;;15.20;99.90;;;;;;4994247;28;20173;-78
2022/11/09 11:48:47;;;;;;;9.07;2.08;;;15.30;99.90;;;;;;4993846;28;20216;-77
2022/11/09 11:51:18;;;;;;;8.90;2.30;;;15.40;99.90;;;;;;4993800;28;20184;-77
2022/11/09 11:53:46;;;;;;;7.75;2.50;;;15.40;99.90;;;;;;4993776;28;20549;-77
2022/11/09 11:56:31;;;;;;;18.35;3.08;;;15.50;99.90;;;;;;4995688;28;20165;-77
2022/11/09 11:59:29;;;;;;;7.75;2.58;;;15.50;99.90;;;;;;4995486;28;20300;-77
2022/11/09 12:02:20;;;;;;;18.23;3.30;;;15.40;99.90;;;;;;5002457;28;20659;-77
2022/11/09 12:04:55;;;;;;;9.63;1.75;;;15.40;99.90;;;;;;4998914;28;20196;-78
2022/11/09 12:07:46;;;;;;;14.85;3.40;;;15.40;99.90;;;;;;4992854;28;20176;-83
2022/11/09 12:10:36;;;;;;;7.78;2.95;;;15.20;99.90;;;;;;4997136;28;20182;-78
2022/11/09 12:13:52;;;;;;;6.30;1.60;;;15.30;99.90;;;;;;4994184;28;20737;-78
2022/11/09 12:16:27;;;;;;;6.20;1.55;;;15.10;99.90;;;;;;4966822;28;20287;-78
2022/11/09 12:19:00;;;;;;;5.68;1.30;;;14.90;99.90;;;;;;4995909;28;20215;-77
2022/11/09 12:21:59;;;;;;;5.60;1.00;;;14.50;99.90;;;;;;4995125;28;20654;-79
2022/11/09 12:24:36;;;;;;;7.10;1.13;;;14.10;99.90;;;;;;4993910;28;20181;-77
2022/11/09 12:27:12;;;;;;;3.65;1.23;;;13.90;99.90;;;;;;4994625;28;20300;-87
2022/11/09 12:29:54;;;;;;;5.28;1.50;;;13.80;99.90;;;;;;4994412;28;20161;-81
2022/11/09 12:32:35;;;;;;;5.18;1.02;;;13.80;99.90;;;;;;4998800;28;20704;-79
2022/11/09 12:35:12;;;;;;;3.22;1.00;;;13.60;99.90;;;;;;4998649;28;20166;-79
2022/11/09 12:38:00;;;;;;;2.40;1.23;;;13.70;99.90;;;;;;4997730;28;20268;-78
2022/11/09 12:40:31;;;;;;;7.80;1.30;;;13.60;99.90;;;;;;4998442;28;20288;-90
2022/11/09 12:43:24;;;;;;;6.72;1.35;;;13.90;99.90;;;;;;4995067;28;20165;-79
2022/11/09 12:45:51;;;;;;;7.13;1.38;;;14.10;99.90;;;;;;4994777;28;20657;-79
2022/11/09 12:48:20;;;;;;;2.78;1.20;;;14.20;99.90;;;;;;4993412;28;20189;-79
2022/11/09 12:50:46;;;;;;;10.45;1.20;;;14.10;99.90;;;;;;4993330;28;20183;-86
2022/11/09 12:53:12;;;;;;;1.58;0.98;;;14.10;99.90;;;;;;4994393;28;20165;-90
2022/11/09 12:55:56;;;;;;;3.30;1.25;;;14.20;99.90;;;;;;4993328;28;20660;-78
2022/11/09 12:58:31;;;;;;;3.63;1.42;;;14.20;99.90;;;;;;4992927;28;20313;-81
2022/11/09 13:00:59;;;;;;;8.65;1.17;;;14.20;99.90;;;;;;4991346;28;20211;-77